Time;durP1;ratioP1;P1;durP2;ratioP2;P2;SDS_P1;SDS_P2;PMS_P1;PMS_P2;Temp;Humidity;BMP_temperature;BMP_pressure;BME280_temperature;BME280_humidity;BME280_pressure;Samples;Min_cycle;Max_cycle;Signal;HPM_P1;HPM_P2
2021/11/08 00:00:46;;;;;;;24.38;6.32;;;7.80;94.40;;;;;;5079507;28;20023;-79
2021/11/08 00:03:14;;;;;;;29.73;5.33;;;7.80;94.40;;;;;;5077578;28;20037;-78
2021/11/08 00:05:44;;;;;;;25.02;6.05;;;7.70;94.30;;;;;;5063563;28;20024;-78
2021/11/08 00:08:11;;;;;;;18.08;5.18;;;7.70;94.30;;;;;;5075607;28;20029;-79
2021/11/08 00:10:38;;;;;;;20.95;4.72;;;7.70;94.20;;;;;;5058357;28;20369;-78
2021/11/08 00:13:06;;;;;;;23.58;5.43;;;7.60;94.20;;;;;;5057668;28;20020;-77
2021/11/08 00:21:07;;;;;;;23.95;5.45;;;7.50;94.00;;;;;;5076214;28;20042;-77
2021/11/08 00:23:33;;;;;;;19.15;5.35;;;7.40;94.00;;;;;;5058252;28;20017;-77
2021/11/08 00:25:58;;;;;;;15.23;4.70;;;7.40;94.00;;;;;;5074877;28;20074;-79
2021/11/08 00:28:27;;;;;;;17.33;5.32;;;7.30;94.00;;;;;;5056229;28;20025;-78
2021/11/08 00:30:54;;;;;;;23.70;5.85;;;7.30;94.00;;;;;;5056764;28;20017;-77
2021/11/08 00:33:22;;;;;;;20.42;5.32;;;7.30;94.00;;;;;;5056699;28;20031;-77
2021/11/08 00:35:57;;;;;;;20.42;6.72;;;7.20;94.00;;;;;;5056761;28;20021;-77
2021/11/08 00:38:24;;;;;;;19.73;6.03;;;7.20;94.00;;;;;;5056426;28;20039;-77
2021/11/08 00:40:50;;;;;;;21.83;5.38;;;7.10;94.00;;;;;;5056675;28;20020;-78
2021/11/08 00:43:18;;;;;;;26.38;6.05;;;7.10;94.10;;;;;;5056576;28;20025;-77
2021/11/08 00:45:44;;;;;;;17.73;5.82;;;7.00;94.10;;;;;;5056426;28;20466;-78
2021/11/08 00:48:11;;;;;;;17.02;4.45;;;7.10;94.20;;;;;;5074542;28;20032;-77
2021/11/08 00:50:37;;;;;;;21.88;5.68;;;7.10;94.20;;;;;;5074828;28;20021;-77
2021/11/08 00:53:05;;;;;;;18.67;5.25;;;7.00;94.20;;;;;;5056536;28;20021;-77
2021/11/08 00:55:31;;;;;;;23.55;6.13;;;7.00;94.20;;;;;;5057929;28;20029;-78
2021/11/08 00:57:59;;;;;;;21.35;5.53;;;7.00;94.20;;;;;;5058912;28;20024;-78
2021/11/08 01:00:29;;;;;;;19.15;5.70;;;7.00;94.20;;;;;;5080705;28;20083;-77
2021/11/08 01:02:54;;;;;;;21.98;5.68;;;7.00;94.20;;;;;;5075987;28;20032;-78
2021/11/08 01:05:20;;;;;;;26.63;6.70;;;7.00;94.10;;;;;;5057779;28;20013;-79
2021/11/08 01:07:47;;;;;;;19.00;5.45;;;7.00;94.10;;;;;;5058838;28;20088;-78
2021/11/08 01:10:15;;;;;;;21.65;5.50;;;6.90;94.10;;;;;;5077521;28;20024;-78
2021/11/08 01:12:42;;;;;;;21.45;5.18;;;6.90;94.10;;;;;;5093727;28;20020;-77
2021/11/08 01:15:09;;;;;;;20.88;4.95;;;6.80;94.10;;;;;;5080727;28;20072;-78
2021/11/08 01:17:35;;;;;;;18.27;5.72;;;6.80;94.10;;;;;;5078354;28;20059;-78
2021/11/08 01:20:02;;;;;;;17.30;5.97;;;6.70;94.10;;;;;;5066862;28;20031;-78
2021/11/08 01:22:28;;;;;;;20.50;5.93;;;6.70;94.10;;;;;;5055899;28;20073;-78
2021/11/08 01:24:55;;;;;;;15.85;5.55;;;6.70;94.10;;;;;;5056029;28;20020;-78
2021/11/08 01:27:45;;;;;;;27.73;5.68;;;6.70;94.10;;;;;;5074156;28;20048;-78
2021/11/08 01:30:19;;;;;;;23.05;5.63;;;6.60;94.20;;;;;;5073846;28;20027;-77
2021/11/08 01:32:56;;;;;;;18.88;5.10;;;6.60;94.20;;;;;;5058360;28;20025;-78
2021/11/08 01:35:43;;;;;;;22.67;5.57;;;6.50;94.40;;;;;;5077170;28;20031;-77
2021/11/08 01:38:21;;;;;;;29.08;5.70;;;6.50;94.20;;;;;;5060608;28;20052;-77
2021/11/08 01:40:48;;;;;;;20.52;4.82;;;6.50;94.20;;;;;;5061209;28;20469;-77
2021/11/08 01:43:16;;;;;;;26.80;5.40;;;6.40;94.30;;;;;;5072838;28;20020;-77
2021/11/08 01:45:42;;;;;;;24.63;5.65;;;6.40;94.40;;;;;;5078227;28;20032;-78
2021/11/08 01:48:12;;;;;;;19.65;6.03;;;6.40;94.50;;;;;;5093872;28;20055;-78
2021/11/08 01:50:40;;;;;;;15.38;5.05;;;6.40;94.50;;;;;;5067461;28;20020;-77
2021/11/08 01:53:06;;;;;;;18.95;5.88;;;6.50;94.60;;;;;;5057473;28;20032;-78
2021/11/08 01:55:32;;;;;;;20.52;6.25;;;6.40;94.60;;;;;;5056733;28;20348;-78
2021/11/08 01:57:58;;;;;;;28.15;5.97;;;6.40;94.80;;;;;;5055186;28;20045;-78
2021/11/08 02:00:27;;;;;;;20.73;4.97;;;6.40;94.60;;;;;;5054981;28;20465;-78
2021/11/08 02:02:53;;;;;;;15.45;4.50;;;6.40;94.70;;;;;;5073088;28;20465;-78
2021/11/08 02:05:19;;;;;;;19.80;5.30;;;6.40;94.70;;;;;;5054998;28;20020;-78
2021/11/08 02:07:48;;;;;;;20.92;5.22;;;6.40;94.70;;;;;;5073146;28;20020;-78
2021/11/08 02:10:15;;;;;;;16.83;4.15;;;6.40;94.80;;;;;;5072961;28;20016;-79
2021/11/08 02:12:42;;;;;;;19.67;5.18;;;6.40;94.80;;;;;;5072856;28;20021;-78
2021/11/08 02:15:13;;;;;;;14.82;4.90;;;6.40;94.90;;;;;;5054915;28;20024;-78
2021/11/08 02:17:42;;;;;;;25.95;6.70;;;6.40;94.90;;;;;;5072533;28;20131;-78
2021/11/08 02:20:20;;;;;;;31.48;6.20;;;6.40;94.90;;;;;;5078405;28;20029;-78
2021/11/08 02:22:49;;;;;;;18.20;6.70;;;6.40;95.30;;;;;;5054886;28;20025;-78
2021/11/08 02:25:17;;;;;;;27.42;7.07;;;6.40;95.30;;;;;;5054753;28;20420;-78
2021/11/08 02:27:44;;;;;;;18.83;6.80;;;6.40;95.30;;;;;;5054793;28;20012;-77
2021/11/08 02:30:11;;;;;;;18.35;6.03;;;6.40;95.10;;;;;;5072087;28;20104;-77
2021/11/08 02:32:39;;;;;;;21.50;7.15;;;6.30;95.10;;;;;;5072863;28;20464;-78
2021/11/08 02:35:07;;;;;;;27.45;9.25;;;6.30;95.00;;;;;;5054718;28;20024;-77
2021/11/08 02:37:33;;;;;;;21.17;7.75;;;6.30;95.00;;;;;;5072111;28;20385;-78
2021/11/08 02:39:59;;;;;;;20.02;4.85;;;6.30;94.90;;;;;;5054505;28;20120;-78
2021/11/08 02:42:25;;;;;;;19.95;5.25;;;6.20;95.00;;;;;;5054379;28;20031;-76
2021/11/08 02:44:51;;;;;;;18.35;4.80;;;6.20;95.10;;;;;;5072766;28;20380;-78
2021/11/08 02:47:16;;;;;;;16.52;4.85;;;6.20;95.20;;;;;;5075663;28;20060;-78
2021/11/08 02:49:45;;;;;;;22.95;5.00;;;6.20;95.20;;;;;;5079620;28;20033;-77
2021/11/08 02:52:15;;;;;;;16.02;5.05;;;6.20;95.20;;;;;;5062410;28;20044;-77
2021/11/08 02:54:43;;;;;;;;;;;6.20;95.20;;;;;;5059513;28;20040;-76
2021/11/08 02:57:09;;;;;;;23.25;6.35;;;6.20;95.20;;;;;;5077325;28;20001;-78
2021/11/08 02:59:38;;;;;;;26.95;6.57;;;6.20;95.20;;;;;;5060101;28;20554;-78
2021/11/08 03:02:06;;;;;;;29.50;7.97;;;6.10;95.20;;;;;;5059243;28;20086;-78
2021/11/08 03:04:39;;;;;;;30.58;8.30;;;6.20;95.30;;;;;;5058576;28;20047;-78
2021/11/08 03:07:05;;;;;;;24.27;6.60;;;6.10;95.40;;;;;;5058815;28;20021;-78
2021/11/08 03:09:35;;;;;;;25.40;7.22;;;6.20;95.50;;;;;;5058968;28;20028;-77
2021/11/08 03:12:08;;;;;;;27.17;7.57;;;6.10;95.60;;;;;;5059234;28;20028;-78
2021/11/08 03:14:37;;;;;;;42.03;8.85;;;6.20;95.80;;;;;;5059085;28;20032;-78
2021/11/08 03:17:04;;;;;;;34.55;8.32;;;6.20;95.90;;;;;;5058770;28;20056;-77
2021/11/08 03:19:35;;;;;;;28.80;8.80;;;6.20;95.90;;;;;;5076850;28;20381;-79
2021/11/08 03:22:11;;;;;;;26.85;10.00;;;6.20;95.90;;;;;;5062777;28;20089;-77
2021/11/08 03:24:43;;;;;;;38.53;9.45;;;6.20;95.90;;;;;;5072913;28;20032;-76
2021/11/08 03:27:18;;;;;;;26.95;8.52;;;6.20;96.00;;;;;;5097129;28;20047;-76
2021/11/08 03:29:45;;;;;;;31.83;8.30;;;6.20;96.00;;;;;;5078624;28;20090;-77
2021/11/08 03:32:13;;;;;;;34.50;10.98;;;6.20;96.00;;;;;;5076771;28;20047;-77
2021/11/08 03:34:46;;;;;;;25.08;8.32;;;6.20;96.10;;;;;;5076528;28;20027;-77
2021/11/08 03:37:12;;;;;;;33.83;9.30;;;6.20;96.20;;;;;;5069816;28;20115;-77
2021/11/08 03:39:37;;;;;;;31.77;10.48;;;6.20;96.20;;;;;;5058363;28;20124;-78
2021/11/08 03:42:03;;;;;;;27.08;10.73;;;6.20;96.30;;;;;;5061084;28;20103;-77
2021/11/08 03:44:29;;;;;;;32.05;9.85;;;6.20;96.30;;;;;;5075808;28;20028;-78
2021/11/08 03:46:55;;;;;;;33.58;11.52;;;6.30;96.40;;;;;;5057712;28;20017;-79
2021/11/08 03:49:20;;;;;;;33.75;11.90;;;6.20;96.40;;;;;;5075655;28;20032;-77
2021/11/08 03:51:46;;;;;;;34.00;11.77;;;6.30;96.40;;;;;;5057805;28;20480;-78
2021/11/08 03:54:12;;;;;;;30.52;11.55;;;6.30;96.40;;;;;;5057709;28;20020;-77
2021/11/08 03:56:37;;;;;;;29.15;12.60;;;6.20;96.30;;;;;;5061651;28;20461;-77
2021/11/08 03:59:03;;;;;;;37.70;13.45;;;6.20;96.20;;;;;;5060352;28;20028;-77
2021/11/08 04:01:33;;;;;;;33.70;13.73;;;6.20;96.30;;;;;;5057847;28;20051;-78
2021/11/08 04:03:59;;;;;;;39.80;14.15;;;6.20;96.30;;;;;;5075163;28;20021;-77
2021/11/08 04:06:25;;;;;;;31.38;11.50;;;6.20;96.30;;;;;;5075220;28;20035;-78
2021/11/08 04:08:51;;;;;;;23.42;11.65;;;6.10;96.30;;;;;;5057366;28;20388;-77
2021/11/08 04:11:17;;;;;;;38.60;17.80;;;6.10;96.40;;;;;;5057039;28;20020;-77
2021/11/08 04:13:42;;;;;;;31.38;14.05;;;6.10;96.30;;;;;;5056993;28;20035;-78
2021/11/08 04:16:12;;;;;;;34.70;11.43;;;6.10;96.30;;;;;;5056936;28;20509;-77
2021/11/08 04:18:45;;;;;;;36.80;11.45;;;6.10;96.30;;;;;;5056556;28;20050;-78
2021/11/08 04:21:11;;;;;;;27.33;10.82;;;6.10;96.30;;;;;;5077136;28;20066;-77
2021/11/08 04:23:37;;;;;;;27.55;11.43;;;6.10;96.20;;;;;;5058476;28;20024;-77
2021/11/08 04:26:04;;;;;;;34.55;12.20;;;6.10;96.20;;;;;;5057003;28;20381;-77
2021/11/08 04:28:30;;;;;;;30.17;10.68;;;6.10;96.20;;;;;;5074868;28;20044;-78
2021/11/08 04:30:56;;;;;;;30.45;9.18;;;6.00;96.20;;;;;;5056673;28;20031;-78
2021/11/08 04:36:12;;;;;;;23.30;10.20;;;6.00;96.00;;;;;;5074664;28;20028;-77
2021/11/08 04:38:51;;;;;;;28.88;11.90;;;6.00;95.90;;;;;;5056150;28;20029;-77
2021/11/08 04:42:08;;;;;;;27.30;11.80;;;6.00;96.00;;;;;;5062887;28;20028;-77
2021/11/08 04:57:04;;;;;;;34.20;11.02;;;6.00;96.50;;;;;;5075011;28;20584;-77
2021/11/08 05:31:43;;;;;;;25.55;10.18;;;6.30;96.40;;;;;;5073699;28;20071;-78
2021/11/08 05:34:09;;;;;;;21.98;9.25;;;6.30;96.30;;;;;;5073605;28;20024;-78
2021/11/08 05:36:35;;;;;;;33.28;10.70;;;6.30;96.30;;;;;;5073794;28;20031;-78
2021/11/08 05:39:04;;;;;;;26.60;10.27;;;6.20;96.30;;;;;;5056557;28;20028;-78
2021/11/08 05:41:30;;;;;;;27.48;10.85;;;6.30;96.20;;;;;;5076036;28;20053;-78
2021/11/08 05:43:55;;;;;;;20.67;9.20;;;6.20;96.10;;;;;;5058166;28;20021;-78
2021/11/08 05:46:21;;;;;;;30.83;10.15;;;6.20;96.10;;;;;;5055535;28;20071;-77
2021/11/08 05:48:47;;;;;;;24.17;8.73;;;6.20;96.10;;;;;;5055716;28;20024;-77
2021/11/08 05:51:13;;;;;;;23.63;10.38;;;6.20;96.00;;;;;;5055748;28;20024;-78
2021/11/08 05:53:43;;;;;;;26.20;10.65;;;6.10;95.90;;;;;;5055663;28;20427;-77
2021/11/08 06:50:08;;;;;;;23.83;9.15;;;6.60;96.60;;;;;;5237150;22;20059;-79
2021/11/08 06:52:34;;;;;;;30.10;10.05;;;6.60;96.60;;;;;;5051586;28;20025;-78
2021/11/08 06:55:04;;;;;;;26.02;9.55;;;6.60;96.50;;;;;;5045913;28;20066;-79
2021/11/08 06:57:31;;;;;;;39.50;9.48;;;6.60;96.50;;;;;;5038167;28;20086;-78
2021/11/08 06:59:57;;;;;;;29.40;9.73;;;6.60;96.50;;;;;;5043374;28;20032;-78
2021/11/08 07:02:25;;;;;;;29.58;10.68;;;6.60;96.40;;;;;;5070079;28;20033;-77
2021/11/08 07:04:54;;;;;;;27.25;11.25;;;6.60;96.40;;;;;;5055553;28;20088;-78
2021/11/08 07:07:20;;;;;;;26.73;9.57;;;6.60;96.40;;;;;;5053115;28;20037;-77
2021/11/08 07:09:46;;;;;;;23.42;9.82;;;6.60;96.40;;;;;;5036798;28;20388;-77
2021/11/08 07:12:12;;;;;;;25.83;9.85;;;6.60;96.40;;;;;;5044459;28;20481;-78
2021/11/08 07:14:39;;;;;;;36.40;10.43;;;6.70;96.40;;;;;;5069567;28;20005;-78
2021/11/08 07:17:06;;;;;;;28.33;9.88;;;6.80;96.50;;;;;;5041947;28;20025;-78
2021/11/08 07:19:31;;;;;;;29.75;9.80;;;6.80;96.40;;;;;;5040706;28;20068;-77
2021/11/08 07:21:58;;;;;;;30.35;9.93;;;6.90;96.40;;;;;;5022288;28;20549;-78
2021/11/08 07:24:24;;;;;;;29.13;9.27;;;6.90;96.30;;;;;;5021555;28;20017;-77
2021/11/08 07:26:50;;;;;;;31.15;9.95;;;7.00;96.30;;;;;;5039435;28;20104;-78
2021/11/08 07:29:16;;;;;;;25.60;8.93;;;7.00;96.40;;;;;;5024260;28;20103;-78
2021/11/08 07:31:43;;;;;;;25.83;9.43;;;7.10;96.30;;;;;;5014022;28;20029;-77
2021/11/08 07:34:09;;;;;;;26.33;9.23;;;7.10;96.20;;;;;;5014628;28;20090;-77
2021/11/08 07:36:35;;;;;;;24.33;9.07;;;7.10;96.20;;;;;;5014588;28;20061;-78
2021/11/08 07:39:01;;;;;;;35.22;10.65;;;7.10;96.10;;;;;;5034926;28;20029;-77
2021/11/08 07:41:27;;;;;;;29.42;8.65;;;7.10;96.10;;;;;;5019032;28;20069;-78
2021/11/08 07:43:52;;;;;;;28.65;8.65;;;7.20;96.10;;;;;;5020110;28;20482;-78
2021/11/08 07:46:18;;;;;;;31.88;9.30;;;7.20;96.00;;;;;;5018195;28;20033;-78
2021/11/08 07:48:45;;;;;;;24.77;9.07;;;7.20;96.10;;;;;;5017888;28;20026;-78
2021/11/08 07:51:14;;;;;;;30.95;10.32;;;7.10;96.20;;;;;;5035330;28;20049;-78
2021/11/08 07:53:40;;;;;;;31.58;10.13;;;7.20;96.20;;;;;;5035871;28;20400;-78
2021/11/08 07:56:06;;;;;;;28.35;9.30;;;7.20;96.30;;;;;;5018584;28;20478;-78
2021/11/08 07:58:33;;;;;;;26.52;10.02;;;7.20;96.30;;;;;;5018199;28;20029;-78
2021/11/08 08:00:58;;;;;;;34.38;9.82;;;7.20;96.30;;;;;;5019692;28;20483;-79
2021/11/08 08:03:26;;;;;;;30.65;10.23;;;7.20;96.40;;;;;;5050141;28;20097;-77
2021/11/08 08:05:52;;;;;;;33.60;10.55;;;7.20;96.40;;;;;;5037077;28;20030;-77
2021/11/08 08:08:18;;;;;;;28.73;10.02;;;7.30;96.40;;;;;;5019666;28;20116;-77
2021/11/08 08:10:45;;;;;;;24.83;10.60;;;7.30;96.40;;;;;;5020119;28;20469;-77
2021/11/08 08:13:10;;;;;;;28.50;9.45;;;7.30;96.40;;;;;;5020505;28;20025;-77
2021/11/08 08:15:37;;;;;;;28.52;10.32;;;7.40;96.40;;;;;;5052758;28;20103;-78
2021/11/08 08:18:03;;;;;;;26.95;10.13;;;7.40;96.40;;;;;;5060841;28;20025;-78
2021/11/08 08:20:33;;;;;;;35.47;10.60;;;7.40;96.30;;;;;;5048756;28;20393;-77
2021/11/08 08:22:59;;;;;;;37.22;10.35;;;7.50;96.40;;;;;;5050989;28;20020;-77
2021/11/08 08:25:25;;;;;;;23.85;10.35;;;7.50;96.30;;;;;;5041630;28;20088;-79
2021/11/08 08:27:51;;;;;;;32.53;10.98;;;7.50;96.30;;;;;;5037834;28;20061;-76
2021/11/08 08:30:16;;;;;;;25.33;10.52;;;7.60;96.30;;;;;;5037696;28;20473;-77
2021/11/08 08:32:42;;;;;;;27.83;9.73;;;7.60;96.20;;;;;;5038574;28;20032;-78
2021/11/08 08:35:13;;;;;;;28.27;9.50;;;7.60;96.10;;;;;;5057935;28;20107;-77
2021/11/08 08:37:39;;;;;;;36.92;10.95;;;7.70;96.10;;;;;;5056959;28;20052;-77
2021/11/08 08:40:05;;;;;;;23.75;9.25;;;7.70;96.00;;;;;;5041183;28;20032;-76
2021/11/08 08:42:31;;;;;;;28.42;10.13;;;7.70;96.10;;;;;;5058540;28;20037;-77
2021/11/08 08:44:56;;;;;;;30.45;9.70;;;7.80;96.20;;;;;;5059700;28;20366;-76
2021/11/08 08:47:22;;;;;;;34.88;11.63;;;7.90;96.10;;;;;;5042917;28;20025;-76
2021/11/08 08:49:49;;;;;;;31.45;10.45;;;8.00;96.00;;;;;;5043191;28;20048;-78
2021/11/08 08:52:15;;;;;;;24.15;9.73;;;8.00;96.00;;;;;;5043672;28;20025;-77
2021/11/08 08:54:41;;;;;;;28.90;9.52;;;8.10;95.90;;;;;;5047476;28;20081;-76
2021/11/08 08:57:08;;;;;;;28.90;9.73;;;8.20;95.90;;;;;;5040284;28;20026;-77
2021/11/08 08:59:34;;;;;;;25.98;9.20;;;8.20;95.80;;;;;;5035904;28;20566;-78
2021/11/08 09:02:00;;;;;;;35.78;10.82;;;8.30;95.70;;;;;;5035528;28;20022;-77
2021/11/08 09:04:27;;;;;;;32.70;10.80;;;8.30;95.80;;;;;;5051153;28;20041;-77
2021/11/08 09:06:52;;;;;;;25.88;10.23;;;8.40;95.80;;;;;;5056865;28;20307;-77
2021/11/08 09:09:19;;;;;;;36.20;11.18;;;8.80;96.90;;;;;;5051374;28;20041;-77
2021/11/08 09:11:45;;;;;;;31.15;8.07;;;9.60;96.00;;;;;;5034759;28;20032;-77
2021/11/08 09:14:11;;;;;;;26.50;8.98;;;10.30;93.30;;;;;;5033882;28;20080;-77
2021/11/08 09:16:37;;;;;;;30.70;9.43;;;10.40;92.40;;;;;;5032501;28;20025;-77
2021/11/08 09:19:04;;;;;;;25.83;8.50;;;10.40;92.50;;;;;;5033510;28;20032;-77
2021/11/08 09:21:31;;;;;;;29.30;8.93;;;10.30;92.50;;;;;;5032413;28;20143;-76
2021/11/08 09:23:59;;;;;;;24.95;8.80;;;10.30;92.10;;;;;;5032036;28;20029;-76
2021/11/08 09:26:27;;;;;;;29.13;9.85;;;10.10;92.20;;;;;;5032375;28;20112;-76
2021/11/08 09:28:54;;;;;;;30.23;9.75;;;10.00;92.40;;;;;;5032135;28;20020;-75
2021/11/08 09:31:21;;;;;;;26.30;8.65;;;9.90;92.60;;;;;;5033710;28;20034;-76
2021/11/08 09:33:52;;;;;;;24.27;8.95;;;9.80;92.70;;;;;;5033460;28;20025;-76
2021/11/08 09:36:18;;;;;;;22.20;9.07;;;9.70;92.90;;;;;;5033562;28;20363;-76
2021/11/08 09:38:54;;;;;;;27.27;9.80;;;9.70;93.10;;;;;;5033564;28;20039;-76
2021/11/08 09:41:21;;;;;;;23.35;8.50;;;9.80;93.00;;;;;;5033712;28;20058;-77
2021/11/08 09:43:51;;;;;;;30.40;9.10;;;9.80;93.10;;;;;;5033367;28;20030;-76
2021/11/08 09:46:16;;;;;;;19.83;7.28;;;9.70;93.20;;;;;;5032196;28;20474;-76
2021/11/08 09:48:42;;;;;;;25.38;8.68;;;9.70;93.30;;;;;;5033537;28;20053;-76
2021/11/08 09:51:10;;;;;;;24.80;8.90;;;9.70;93.40;;;;;;5032833;28;20081;-76
2021/11/08 09:53:36;;;;;;;30.83;9.60;;;9.70;93.50;;;;;;5033492;28;20482;-77
2021/11/08 09:56:04;;;;;;;26.92;9.45;;;9.70;93.50;;;;;;5032575;28;20059;-77
2021/11/08 09:58:30;;;;;;;24.73;8.13;;;9.70;93.40;;;;;;5034217;28;20040;-77
2021/11/08 10:00:59;;;;;;;35.72;10.73;;;9.70;93.60;;;;;;5033054;28;20033;-77
2021/11/08 10:03:29;;;;;;;25.02;9.43;;;9.80;94.00;;;;;;5036906;28;20032;-78
2021/11/08 10:05:56;;;;;;;27.00;9.43;;;9.80;93.70;;;;;;5018238;28;20466;-77
2021/11/08 10:08:26;;;;;;;26.63;8.57;;;9.90;93.70;;;;;;5035126;28;20473;-76
2021/11/08 10:10:54;;;;;;;28.15;7.78;;;10.00;94.00;;;;;;5032835;28;20032;-78
2021/11/08 10:13:23;;;;;;;21.92;9.20;;;10.10;93.50;;;;;;5034055;28;20087;-77
2021/11/08 10:15:51;;;;;;;28.38;9.98;;;10.20;93.30;;;;;;5033151;28;20021;-78
2021/11/08 10:18:20;;;;;;;31.40;11.18;;;10.20;93.30;;;;;;5033806;28;20022;-76
2021/11/08 10:20:51;;;;;;;18.58;4.90;;;10.30;93.10;;;;;;5043337;28;20068;-79
2021/11/08 10:23:21;;;;;;;31.70;11.02;;;10.40;94.50;;;;;;5036807;28;20028;-79
2021/11/08 10:25:47;;;;;;;25.92;8.02;;;10.50;93.90;;;;;;5035858;28;20029;-79
2021/11/08 10:28:16;;;;;;;28.83;8.70;;;10.60;93.60;;;;;;5035185;28;20032;-79
2021/11/08 10:30:45;;;;;;;22.92;7.68;;;10.60;93.30;;;;;;5036602;28;20044;-79
2021/11/08 10:33:18;;;;;;;25.35;8.18;;;10.80;93.00;;;;;;5039014;28;20025;-79
2021/11/08 10:35:46;;;;;;;21.98;7.75;;;10.80;92.50;;;;;;5041206;28;20040;-78
2021/11/08 10:38:27;;;;;;;28.23;7.82;;;10.90;92.50;;;;;;5045318;28;20021;-76
2021/11/08 10:40:56;;;;;;;25.48;8.60;;;11.10;92.70;;;;;;5041335;28;20030;-77
2021/11/08 10:43:35;;;;;;;21.60;6.80;;;11.90;92.30;;;;;;5037544;28;20060;-77
2021/11/08 10:46:07;;;;;;;19.98;6.53;;;13.10;89.90;;;;;;5033889;28;20095;-78
2021/11/08 10:48:36;;;;;;;17.67;6.32;;;13.90;86.40;;;;;;5033464;28;20033;-78
2021/11/08 10:51:05;;;;;;;21.38;5.60;;;14.50;81.90;;;;;;5032620;28;20073;-78
2021/11/08 10:53:41;;;;;;;17.55;5.10;;;15.10;79.10;;;;;;5035669;28;20077;-77
2021/11/08 10:56:09;;;;;;;17.00;5.35;;;15.00;77.90;;;;;;5047825;28;20018;-78
2021/11/08 10:58:35;;;;;;;12.60;3.80;;;14.70;79.10;;;;;;5048527;28;20032;-78
2021/11/08 11:01:02;;;;;;;20.20;5.50;;;14.60;82.10;;;;;;5050152;28;20030;-79
2021/11/08 11:03:29;;;;;;;23.65;6.80;;;14.80;80.70;;;;;;5043785;28;20417;-78
2021/11/08 11:06:03;;;;;;;14.27;4.88;;;15.60;76.80;;;;;;5031604;28;20044;-79
2021/11/08 11:08:31;;;;;;;23.23;5.80;;;16.40;73.80;;;;;;5031873;28;20446;-78
2021/11/08 11:11:03;;;;;;;18.67;5.25;;;16.90;72.90;;;;;;5033356;28;20025;-78
2021/11/08 11:13:30;;;;;;;16.45;4.82;;;17.50;70.30;;;;;;5035120;28;20057;-79
2021/11/08 11:16:02;;;;;;;17.45;4.18;;;18.10;68.90;;;;;;5036262;28;20033;-79
2021/11/08 11:18:34;;;;;;;17.95;5.63;;;18.50;64.70;;;;;;5035292;28;20022;-79
2021/11/08 11:21:17;;;;;;;14.95;3.78;;;18.70;63.30;;;;;;5035207;28;20037;-79
2021/11/08 11:23:49;;;;;;;17.17;4.60;;;18.40;63.90;;;;;;5035101;28;20029;-79
2021/11/08 11:26:18;;;;;;;16.38;4.00;;;17.80;63.00;;;;;;5035132;28;20021;-79
2021/11/08 11:28:48;;;;;;;18.33;4.40;;;16.90;65.30;;;;;;5035076;28;20029;-78
2021/11/08 11:31:20;;;;;;;23.50;3.67;;;16.20;68.70;;;;;;5035989;28;20428;-79
2021/11/08 11:33:47;;;;;;;20.20;4.47;;;16.00;71.20;;;;;;5035134;28;20029;-79
2021/11/08 11:36:15;;;;;;;19.50;5.20;;;16.40;68.10;;;;;;5035806;28;20378;-78
2021/11/08 11:38:44;;;;;;;16.40;4.63;;;17.40;66.40;;;;;;5040207;28;20025;-79
2021/11/08 11:41:17;;;;;;;15.90;4.32;;;18.40;62.20;;;;;;5039775;28;20124;-79
2021/11/08 11:43:52;;;;;;;18.60;3.72;;;18.80;61.00;;;;;;5034851;28;20076;-79
2021/11/08 11:46:24;;;;;;;25.40;5.78;;;18.90;60.40;;;;;;5036651;28;20481;-79
2021/11/08 11:48:53;;;;;;;14.45;3.33;;;19.20;60.80;;;;;;5034703;28;20038;-79
2021/11/08 11:51:31;;;;;;;15.07;4.20;;;19.70;60.10;;;;;;5054809;28;20102;-80
2021/11/08 11:53:58;;;;;;;15.68;4.18;;;20.10;61.10;;;;;;5039438;28;20032;-81
2021/11/08 11:56:26;;;;;;;15.85;4.07;;;20.40;60.00;;;;;;5051529;28;20021;-81
2021/11/08 11:58:52;;;;;;;21.85;5.40;;;20.10;59.90;;;;;;5039545;28;20025;-81
2021/11/08 12:01:21;;;;;;;18.15;4.25;;;19.30;59.90;;;;;;5070600;28;20040;-78
2021/11/08 12:03:47;;;;;;;20.27;4.93;;;18.60;61.50;;;;;;5067035;28;20083;-78
2021/11/08 12:06:16;;;;;;;18.00;4.93;;;18.00;66.80;;;;;;5038503;28;20017;-79
2021/11/08 12:08:42;;;;;;;16.92;4.90;;;17.30;64.20;;;;;;5038677;28;20040;-79
2021/11/08 12:11:09;;;;;;;19.27;4.82;;;16.90;66.10;;;;;;5038177;28;20350;-79
2021/11/08 12:13:40;;;;;;;19.98;5.38;;;16.50;68.00;;;;;;5037543;28;20358;-78
2021/11/08 12:16:28;;;;;;;14.73;4.32;;;16.20;70.90;;;;;;5055395;28;20017;-78
2021/11/08 12:18:59;;;;;;;15.70;4.55;;;15.90;71.10;;;;;;5059307;28;20029;-80
2021/11/08 12:21:27;;;;;;;23.77;5.25;;;15.70;70.00;;;;;;5037599;28;20032;-79
2021/11/08 12:23:54;;;;;;;20.83;4.80;;;15.50;70.40;;;;;;5036809;28;20017;-79
2021/11/08 12:26:23;;;;;;;22.15;5.63;;;15.40;72.10;;;;;;5038145;28;20040;-78
2021/11/08 12:28:50;;;;;;;17.17;4.55;;;15.30;73.90;;;;;;5040713;28;20037;-78
2021/11/08 12:31:23;;;;;;;20.00;5.00;;;15.20;74.50;;;;;;5039797;28;20028;-78
2021/11/08 12:34:20;;;;;;;16.23;4.38;;;15.10;73.10;;;;;;5038742;28;20500;-79
2021/11/08 12:36:59;;;;;;;20.20;5.25;;;15.00;76.70;;;;;;5017993;28;20063;-79
2021/11/08 12:39:26;;;;;;;23.93;6.03;;;14.90;76.60;;;;;;5038158;28;20099;-79
2021/11/08 12:41:59;;;;;;;19.40;4.80;;;14.80;74.60;;;;;;5036134;28;20445;-79
2021/11/08 12:44:45;;;;;;;15.02;4.25;;;14.70;76.40;;;;;;5018718;28;20034;-79
2021/11/08 12:47:14;;;;;;;27.52;4.95;;;14.60;75.60;;;;;;5025993;28;20013;-79
2021/11/08 12:49:48;;;;;;;18.13;4.50;;;14.60;74.40;;;;;;5040580;28;20041;-78
2021/11/08 12:52:18;;;;;;;19.33;4.82;;;14.60;78.00;;;;;;5040944;28;20081;-79
2021/11/08 12:54:46;;;;;;;18.40;3.20;;;14.50;74.30;;;;;;5057653;28;20009;-80
2021/11/08 12:57:13;;;;;;;14.07;3.63;;;14.50;74.80;;;;;;5020392;28;20314;-79
2021/11/08 12:59:53;;;;;;;20.02;4.88;;;14.50;74.40;;;;;;5025384;28;20029;-79
2021/11/08 13:02:23;;;;;;;;;;;14.90;72.90;;;;;;5035806;28;20057;-78
2021/11/08 13:04:58;;;;;;;25.50;6.38;;;16.30;67.90;;;;;;5016963;28;19905;-79
2021/11/08 13:07:37;;;;;;;23.60;5.00;;;17.30;64.90;;;;;;5034982;28;20485;-79
2021/11/08 13:10:22;;;;;;;20.58;4.00;;;17.50;62.90;;;;;;5016747;28;20032;-79
2021/11/08 13:12:48;;;;;;;25.10;6.05;;;17.60;63.10;;;;;;5016839;28;20021;-79
2021/11/08 13:15:20;;;;;;;20.02;4.05;;;17.80;63.10;;;;;;5017444;28;20117;-78
2021/11/08 13:18:04;;;;;;;14.10;4.45;;;18.30;61.70;;;;;;5034305;28;20025;-79
2021/11/08 13:20:39;;;;;;;19.80;4.60;;;17.90;62.40;;;;;;5034466;28;20036;-79
2021/11/08 13:23:11;;;;;;;22.70;4.30;;;17.80;62.80;;;;;;5016952;28;20551;-79
2021/11/08 13:25:52;;;;;;;19.92;4.72;;;17.70;62.20;;;;;;5034650;28;20025;-79
2021/11/08 13:28:23;;;;;;;21.17;5.00;;;17.90;62.30;;;;;;5016614;28;20114;-79
2021/11/08 13:30:48;;;;;;;19.20;5.05;;;17.60;62.10;;;;;;5016237;28;20029;-79
2021/11/08 13:33:18;;;;;;;29.88;5.88;;;17.10;63.40;;;;;;5020576;28;20543;-80
2021/11/08 13:35:45;;;;;;;17.60;5.97;;;16.50;65.60;;;;;;5053248;28;20036;-78
2021/11/08 13:38:20;;;;;;;18.70;4.57;;;16.00;67.60;;;;;;5051344;28;20021;-79
2021/11/08 13:40:53;;;;;;;16.52;4.78;;;15.60;69.50;;;;;;5053929;28;20037;-78
2021/11/08 13:43:35;;;;;;;24.75;5.78;;;15.40;69.30;;;;;;5043219;28;20047;-79
2021/11/08 13:46:06;;;;;;;17.02;4.40;;;15.20;69.70;;;;;;5036749;28;20055;-78
2021/11/08 13:48:33;;;;;;;21.92;5.22;;;14.80;73.00;;;;;;5036184;28;20093;-76
2021/11/08 13:51:03;;;;;;;19.98;5.10;;;14.70;72.20;;;;;;5032771;28;20075;-79
2021/11/08 13:53:38;;;;;;;20.70;5.45;;;14.80;72.80;;;;;;5032952;28;20025;-79
2021/11/08 13:56:09;;;;;;;14.57;4.60;;;15.20;73.10;;;;;;5033869;28;20025;-79
2021/11/08 13:58:44;;;;;;;19.05;4.55;;;15.30;71.50;;;;;;5035576;28;20025;-78
2021/11/08 14:01:10;;;;;;;21.67;5.05;;;15.20;70.80;;;;;;5053668;28;20032;-79
2021/11/08 14:03:42;;;;;;;21.20;4.65;;;14.90;71.50;;;;;;5040345;28;20017;-79
2021/11/08 14:06:09;;;;;;;19.75;4.32;;;14.70;72.50;;;;;;5031417;28;20034;-79
2021/11/08 14:08:45;;;;;;;17.02;4.63;;;14.50;73.60;;;;;;5033759;28;20029;-79
2021/11/08 14:11:11;;;;;;;19.98;4.28;;;14.30;74.30;;;;;;5031782;28;20035;-77
2021/11/08 14:13:38;;;;;;;15.10;4.57;;;14.20;75.40;;;;;;5032373;28;20103;-78
2021/11/08 14:16:09;;;;;;;36.17;5.72;;;14.10;75.40;;;;;;5035832;28;20021;-78
2021/11/08 14:18:36;;;;;;;21.85;4.35;;;14.00;76.20;;;;;;5037975;28;20125;-79
2021/11/08 14:21:11;;;;;;;19.05;4.82;;;14.00;78.50;;;;;;5035014;28;20084;-79
2021/11/08 14:23:38;;;;;;;16.98;4.35;;;13.90;77.50;;;;;;5034529;28;20025;-79
2021/11/08 14:26:15;;;;;;;19.30;4.30;;;13.90;76.90;;;;;;5036386;28;20029;-77
2021/11/08 14:28:43;;;;;;;20.20;5.15;;;13.70;76.70;;;;;;5035390;28;20028;-79
2021/11/08 14:31:30;;;;;;;27.45;4.88;;;13.70;77.30;;;;;;5034866;28;20104;-77
2021/11/08 14:34:00;;;;;;;25.83;4.50;;;13.60;77.00;;;;;;5038602;28;20095;-78
2021/11/08 14:36:30;;;;;;;18.43;4.90;;;13.60;77.40;;;;;;5046663;28;20021;-79